Time;durP1;ratioP1;P1;durP2;ratioP2;P2;SDS_P1;SDS_P2;PMS_P1;PMS_P2;Temp;Humidity;BMP_temperature;BMP_pressure;BME280_temperature;BME280_humidity;BME280_pressure;Samples;Min_cycle;Max_cycle;Signal;HPM_P1;HPM_P2
2021/12/20 00:01:54;;;;;;;25.70;3.72;;;6.60;99.90;;;;;;5057307;28;20040;-66
2021/12/20 00:04:20;;;;;;;18.45;4.10;;;6.60;99.90;;;;;;5056998;28;20132;-66
2021/12/20 00:06:46;;;;;;;25.30;4.00;;;6.60;99.90;;;;;;5055805;28;20554;-65
2021/12/20 00:09:11;;;;;;;27.02;4.50;;;6.60;99.90;;;;;;5049760;28;20123;-65
2021/12/20 00:11:37;;;;;;;30.85;4.18;;;6.60;99.90;;;;;;5041360;28;20045;-65
2021/12/20 00:14:03;;;;;;;23.77;4.07;;;6.60;99.90;;;;;;5039314;28;20550;-65
2021/12/20 00:16:29;;;;;;;22.83;4.35;;;6.60;99.90;;;;;;5041090;28;20040;-65
2021/12/20 00:18:55;;;;;;;18.95;3.60;;;6.50;99.90;;;;;;5040472;28;20050;-66
2021/12/20 00:21:20;;;;;;;22.90;3.92;;;6.50;99.90;;;;;;5044611;28;20061;-66
2021/12/20 00:23:46;;;;;;;39.60;5.10;;;6.50;99.90;;;;;;5036436;28;20040;-66
2021/12/20 00:26:12;;;;;;;27.30;4.32;;;6.50;99.90;;;;;;5043511;28;20131;-66
2021/12/20 00:28:38;;;;;;;26.88;4.93;;;6.50;99.90;;;;;;5039982;28;20052;-66
2021/12/20 00:31:04;;;;;;;28.73;5.30;;;6.40;99.90;;;;;;5049854;28;20111;-66
2021/12/20 00:33:33;;;;;;;28.73;4.13;;;6.40;99.90;;;;;;5034413;28;20053;-65
2021/12/20 00:36:01;;;;;;;29.38;4.53;;;6.40;99.90;;;;;;5033059;28;20042;-66
2021/12/20 00:41:11;;;;;;;24.63;3.78;;;6.30;99.90;;;;;;5037823;28;20060;-65
2021/12/20 00:43:36;;;;;;;22.48;4.95;;;6.30;99.90;;;;;;5034075;28;20797;-66
2021/12/20 00:46:03;;;;;;;33.25;4.63;;;6.30;99.90;;;;;;5049606;28;20488;-66
2021/12/20 00:48:28;;;;;;;27.20;4.53;;;6.30;99.90;;;;;;5044027;28;20068;-66
2021/12/20 00:50:54;;;;;;;20.77;4.20;;;6.30;99.90;;;;;;5050173;28;20065;-66
2021/12/20 00:53:20;;;;;;;28.30;3.97;;;6.30;99.90;;;;;;5047152;28;20044;-66
2021/12/20 00:55:45;;;;;;;26.35;4.97;;;6.30;99.90;;;;;;5047837;28;20075;-66
2021/12/20 00:58:11;;;;;;;21.83;3.75;;;6.30;99.90;;;;;;5044680;28;20064;-66
2021/12/20 01:00:43;;;;;;;29.73;4.60;;;6.30;99.90;;;;;;5039018;28;20521;-66
2021/12/20 01:03:10;;;;;;;21.33;3.97;;;6.30;99.90;;;;;;5039705;28;20523;-66
2021/12/20 01:05:38;;;;;;;25.45;4.00;;;6.30;99.90;;;;;;5032272;28;20045;-66
2021/12/20 01:08:06;;;;;;;28.20;4.57;;;6.30;99.90;;;;;;5032492;28;20045;-65
2021/12/20 01:10:33;;;;;;;29.92;4.70;;;6.30;99.90;;;;;;5058231;28;20515;-66
2021/12/20 01:13:01;;;;;;;27.75;4.88;;;6.30;99.90;;;;;;5081541;28;20081;-66
2021/12/20 01:15:44;;;;;;;25.58;4.15;;;6.30;99.90;;;;;;5062034;28;20175;-66
2021/12/20 01:18:10;;;;;;;25.58;4.70;;;6.30;99.90;;;;;;5080512;28;20415;-66
2021/12/20 01:20:36;;;;;;;22.02;3.20;;;6.40;99.90;;;;;;5081123;28;20046;-66
2021/12/20 01:23:03;;;;;;;24.73;3.88;;;6.40;99.90;;;;;;5083086;28;20041;-66
2021/12/20 01:25:29;;;;;;;25.73;3.38;;;6.40;99.90;;;;;;5060752;28;20067;-66
2021/12/20 01:27:55;;;;;;;29.70;3.95;;;6.40;99.90;;;;;;5083662;28;20510;-66
2021/12/20 01:30:25;;;;;;;30.02;4.10;;;6.40;99.90;;;;;;5057772;28;20132;-66
2021/12/20 01:32:51;;;;;;;22.40;5.00;;;6.40;99.90;;;;;;5081174;28;20044;-66
2021/12/20 01:35:18;;;;;;;25.60;3.80;;;6.40;99.90;;;;;;5063668;28;20076;-66
2021/12/20 01:37:44;;;;;;;29.67;3.95;;;6.40;99.90;;;;;;5082421;28;20090;-65
2021/12/20 01:40:13;;;;;;;22.88;3.72;;;6.40;99.90;;;;;;5090448;28;20391;-66
2021/12/20 01:42:40;;;;;;;43.28;4.65;;;6.40;99.90;;;;;;5055014;28;20585;-66
2021/12/20 01:45:15;;;;;;;17.48;3.15;;;6.40;99.90;;;;;;5079536;28;20272;-67
2021/12/20 01:47:45;;;;;;;24.02;4.25;;;6.40;99.90;;;;;;5078373;28;20274;-66
2021/12/20 01:50:25;;;;;;;20.33;4.22;;;6.40;99.90;;;;;;5087568;28;20048;-66
2021/12/20 01:52:51;;;;;;;32.88;4.93;;;6.40;99.90;;;;;;5058559;28;20576;-65
2021/12/20 01:55:19;;;;;;;18.63;3.75;;;6.40;99.90;;;;;;5060739;28;20052;-66
2021/12/20 01:57:46;;;;;;;30.10;5.43;;;6.40;99.90;;;;;;5058305;28;20044;-66
2021/12/20 02:00:18;;;;;;;27.50;4.10;;;6.40;99.90;;;;;;5058567;28;20130;-66
2021/12/20 02:02:44;;;;;;;25.67;3.42;;;6.40;99.90;;;;;;5062185;28;20143;-66
2021/12/20 02:05:25;;;;;;;33.67;4.95;;;6.40;99.90;;;;;;5082273;28;20470;-66
2021/12/20 02:07:59;;;;;;;40.50;5.80;;;6.40;99.90;;;;;;5060692;28;20339;-65
2021/12/20 02:10:24;;;;;;;25.48;3.75;;;6.40;99.90;;;;;;5077060;28;20494;-66
2021/12/20 02:12:50;;;;;;;21.05;3.40;;;6.40;99.90;;;;;;5078124;28;20055;-66
2021/12/20 02:15:16;;;;;;;17.80;3.83;;;6.40;99.90;;;;;;5062346;28;20041;-66
2021/12/20 02:17:42;;;;;;;14.63;2.88;;;6.40;99.90;;;;;;5084040;28;20054;-66
2021/12/20 02:20:10;;;;;;;21.25;2.97;;;6.40;99.90;;;;;;5064481;28;20036;-66
2021/12/20 02:22:38;;;;;;;17.55;3.10;;;6.40;99.90;;;;;;5069991;28;20047;-66
2021/12/20 02:25:06;;;;;;;15.60;2.92;;;6.50;99.90;;;;;;5093126;27;20056;-65
2021/12/20 02:27:31;;;;;;;18.00;3.28;;;6.50;99.90;;;;;;5058885;28;20040;-66
2021/12/20 02:30:13;;;;;;;27.80;3.13;;;6.50;99.90;;;;;;5076562;28;20341;-66
2021/12/20 02:38:18;;;;;;;16.30;2.80;;;6.40;99.90;;;;;;5060299;28;20040;-66
2021/12/20 02:40:44;;;;;;;25.70;4.57;;;6.40;99.90;;;;;;5078499;28;20641;-66
2021/12/20 02:43:13;;;;;;;25.45;4.60;;;6.40;99.90;;;;;;5074755;28;20503;-67
2021/12/20 02:45:40;;;;;;;19.65;2.72;;;6.40;99.90;;;;;;5077963;28;20037;-66
2021/12/20 02:48:05;;;;;;;22.00;3.15;;;6.40;99.90;;;;;;5062528;28;20051;-66
2021/12/20 02:50:31;;;;;;;18.23;2.38;;;6.50;99.90;;;;;;5063595;28;20048;-66
2021/12/20 02:52:57;;;;;;;17.88;2.80;;;6.40;99.90;;;;;;5080802;28;20089;-65
2021/12/20 02:55:22;;;;;;;18.17;3.15;;;6.40;99.90;;;;;;5083252;28;20430;-66
2021/12/20 02:57:48;;;;;;;14.50;2.35;;;6.40;99.90;;;;;;5077356;28;20525;-66
2021/12/20 03:00:14;;;;;;;20.75;2.92;;;6.40;99.90;;;;;;5058544;28;20041;-66
2021/12/20 03:02:40;;;;;;;13.75;2.58;;;6.40;99.90;;;;;;5056885;28;20484;-66
2021/12/20 03:05:07;;;;;;;14.32;2.53;;;6.50;99.90;;;;;;5055379;28;20472;-67
2021/12/20 03:07:42;;;;;;;12.48;2.47;;;6.50;99.90;;;;;;5082374;28;20791;-66
2021/12/20 03:10:09;;;;;;;20.70;2.88;;;6.50;99.90;;;;;;5060339;28;20575;-66
2021/12/20 03:12:35;;;;;;;12.23;1.95;;;6.50;99.90;;;;;;5060743;28;20119;-66
2021/12/20 03:15:10;;;;;;;16.35;2.10;;;6.60;99.90;;;;;;5058416;28;20131;-66
2021/12/20 03:17:36;;;;;;;11.73;2.50;;;6.50;99.90;;;;;;5065994;28;20139;-66
2021/12/20 03:20:02;;;;;;;13.55;2.22;;;6.50;99.90;;;;;;5063005;28;20036;-66
2021/12/20 03:22:28;;;;;;;12.40;2.22;;;6.50;99.90;;;;;;5097502;28;20285;-66
2021/12/20 03:24:53;;;;;;;12.88;1.90;;;6.50;99.90;;;;;;5066999;28;20694;-66
2021/12/20 03:27:20;;;;;;;10.77;2.10;;;6.40;99.90;;;;;;5060575;28;20048;-67
2021/12/20 03:29:46;;;;;;;14.00;2.13;;;6.40;99.90;;;;;;5089815;28;20060;-66
2021/12/20 03:32:11;;;;;;;18.50;2.17;;;6.40;99.90;;;;;;5064415;28;20114;-66
2021/12/20 03:34:37;;;;;;;13.85;2.13;;;6.30;99.90;;;;;;5072901;28;20043;-66
2021/12/20 03:37:03;;;;;;;15.27;2.13;;;6.30;99.90;;;;;;5061274;28;20044;-67
2021/12/20 03:39:29;;;;;;;16.27;2.40;;;6.30;99.90;;;;;;5055652;28;20036;-66
2021/12/20 03:41:54;;;;;;;12.57;1.92;;;6.30;99.90;;;;;;5081976;28;20036;-66
2021/12/20 03:44:20;;;;;;;13.07;1.95;;;6.20;99.90;;;;;;5065087;28;20040;-66
2021/12/20 03:46:46;;;;;;;8.55;1.92;;;6.20;99.90;;;;;;5090685;28;20036;-66
2021/12/20 03:49:11;;;;;;;10.52;2.25;;;6.10;99.90;;;;;;5068373;28;20052;-66
2021/12/20 03:51:37;;;;;;;15.00;1.95;;;6.10;99.90;;;;;;5091205;28;20648;-66
2021/12/20 03:54:04;;;;;;;9.02;1.85;;;6.00;99.90;;;;;;5069535;28;20056;-65
2021/12/20 03:56:30;;;;;;;10.68;3.47;;;6.00;99.90;;;;;;5061809;28;20044;-65
2021/12/20 03:58:55;;;;;;;14.60;2.03;;;6.00;99.90;;;;;;5064724;28;20499;-65
2021/12/20 04:01:21;;;;;;;10.82;1.85;;;6.00;99.90;;;;;;5088689;28;20047;-65
2021/12/20 04:03:46;;;;;;;10.90;2.47;;;5.90;99.90;;;;;;5095673;28;20049;-65
2021/12/20 04:06:13;;;;;;;8.10;1.90;;;5.90;99.90;;;;;;5065669;28;20399;-65
2021/12/20 04:08:40;;;;;;;7.90;1.42;;;5.80;99.90;;;;;;5065534;28;20054;-65
2021/12/20 04:11:06;;;;;;;14.43;2.17;;;5.80;99.90;;;;;;5093491;28;20148;-66
2021/12/20 04:13:32;;;;;;;8.15;1.95;;;5.70;99.90;;;;;;5095050;28;20077;-65
2021/12/20 04:15:58;;;;;;;7.50;1.48;;;5.70;99.90;;;;;;5095394;28;20122;-65
2021/12/20 04:18:25;;;;;;;10.65;2.00;;;5.60;99.90;;;;;;5093711;28;20486;-65
2021/12/20 04:20:51;;;;;;;10.98;1.75;;;5.60;99.90;;;;;;5069658;28;20050;-65
2021/12/20 04:23:17;;;;;;;14.23;2.03;;;5.60;99.90;;;;;;5075220;28;20036;-66
2021/12/20 04:25:43;;;;;;;8.15;1.45;;;5.50;99.90;;;;;;5072007;28;20067;-66
2021/12/20 04:28:09;;;;;;;10.95;2.13;;;5.50;99.90;;;;;;5070804;28;20044;-66
2021/12/20 04:30:35;;;;;;;13.63;1.60;;;5.50;99.90;;;;;;5067772;28;20405;-66
2021/12/20 04:33:01;;;;;;;10.25;1.73;;;5.50;99.90;;;;;;5107457;28;20031;-66
2021/12/20 04:35:27;;;;;;;10.68;1.80;;;5.50;99.90;;;;;;5070470;28;20597;-66
2021/12/20 04:37:54;;;;;;;8.05;1.65;;;5.40;99.90;;;;;;5067318;28;20123;-66
2021/12/20 04:40:22;;;;;;;11.98;2.92;;;5.40;99.90;;;;;;5066649;28;20075;-66
2021/12/20 04:42:53;;;;;;;6.68;1.48;;;5.40;99.90;;;;;;5093174;28;20585;-66
2021/12/20 04:45:19;;;;;;;8.75;1.38;;;5.40;99.90;;;;;;5068240;28;20147;-66
2021/12/20 04:47:45;;;;;;;8.18;1.38;;;5.30;99.90;;;;;;5067149;28;20040;-67
2021/12/20 04:50:11;;;;;;;10.90;1.83;;;5.20;99.90;;;;;;5069048;28;20047;-66
2021/12/20 04:52:37;;;;;;;8.95;1.27;;;5.20;99.90;;;;;;5074606;28;20051;-66
2021/12/20 04:55:05;;;;;;;10.38;2.28;;;5.10;99.90;;;;;;5070412;28;20475;-66
2021/12/20 04:57:31;;;;;;;7.82;1.50;;;5.10;99.90;;;;;;5071029;28;20047;-66
2021/12/20 04:59:57;;;;;;;7.18;1.67;;;5.00;99.90;;;;;;5064237;28;20104;-66
2021/12/20 05:02:22;;;;;;;7.50;1.67;;;5.00;99.90;;;;;;5093601;28;20067;-66
2021/12/20 05:04:48;;;;;;;10.85;2.15;;;5.00;99.90;;;;;;5066691;28;20044;-66
2021/12/20 05:07:13;;;;;;;11.10;1.60;;;5.00;99.90;;;;;;5068287;28;20519;-66
2021/12/20 05:09:40;;;;;;;13.25;1.77;;;5.00;99.90;;;;;;5073823;28;20051;-66
2021/12/20 05:12:11;;;;;;;9.00;1.40;;;5.00;99.90;;;;;;5074745;28;20093;-67
2021/12/20 05:14:40;;;;;;;8.30;1.65;;;5.00;99.90;;;;;;5098955;28;20115;-66
2021/12/20 05:17:07;;;;;;;5.88;1.27;;;4.90;99.90;;;;;;5091735;28;20052;-66
2021/12/20 05:19:33;;;;;;;6.40;1.30;;;4.90;99.90;;;;;;5068359;28;20505;-66
2021/12/20 05:21:59;;;;;;;10.40;1.60;;;4.90;99.90;;;;;;5091087;28;20039;-66
2021/12/20 05:24:25;;;;;;;18.63;2.15;;;4.90;99.90;;;;;;5094403;28;20126;-66
2021/12/20 05:26:50;;;;;;;11.63;1.85;;;4.90;99.90;;;;;;5067973;28;20045;-66
2021/12/20 05:29:16;;;;;;;13.52;1.73;;;4.90;99.90;;;;;;5099520;28;20107;-66
2021/12/20 05:31:42;;;;;;;5.55;1.05;;;4.90;99.90;;;;;;5092691;28;20055;-66
2021/12/20 05:34:07;;;;;;;7.55;1.15;;;4.90;99.90;;;;;;5064183;28;20106;-66
2021/12/20 05:36:33;;;;;;;12.13;1.55;;;4.90;99.90;;;;;;5072905;28;20093;-65
2021/12/20 05:38:58;;;;;;;7.63;1.30;;;4.90;99.90;;;;;;5068494;28;20040;-66
2021/12/20 05:41:24;;;;;;;8.43;1.75;;;4.90;99.90;;;;;;5072736;28;20044;-66
2021/12/20 05:43:50;;;;;;;7.68;1.33;;;4.80;99.90;;;;;;5068488;28;20032;-66
2021/12/20 05:46:17;;;;;;;11.88;1.77;;;4.80;99.90;;;;;;5067524;28;20036;-66
2021/12/20 05:48:43;;;;;;;10.57;1.80;;;4.90;99.90;;;;;;5087530;28;20135;-66
2021/12/20 05:51:08;;;;;;;14.20;1.80;;;4.80;99.90;;;;;;5070060;28;20178;-66
2021/12/20 05:53:34;;;;;;;11.30;1.63;;;4.80;99.90;;;;;;5061824;28;20063;-66
2021/12/20 05:56:00;;;;;;;10.52;1.65;;;4.80;99.90;;;;;;5091050;28;20074;-66
2021/12/20 05:58:26;;;;;;;9.60;1.52;;;4.80;99.90;;;;;;5073577;28;20183;-66
2021/12/20 06:00:51;;;;;;;13.27;2.92;;;4.90;99.90;;;;;;5069051;28;20138;-66
2021/12/20 06:03:17;;;;;;;9.68;1.40;;;4.90;99.90;;;;;;5083908;28;20149;-65
2021/12/20 06:05:43;;;;;;;9.02;1.60;;;4.90;99.90;;;;;;5064643;28;20041;-66
2021/12/20 06:08:10;;;;;;;10.27;2.00;;;5.00;99.90;;;;;;5065761;28;20037;-65
2021/12/20 06:10:36;;;;;;;9.52;1.95;;;5.00;99.90;;;;;;5072817;28;20039;-65
2021/12/20 06:13:03;;;;;;;16.35;2.08;;;5.10;99.90;;;;;;5092335;28;20043;-66
2021/12/20 06:15:30;;;;;;;11.90;1.70;;;5.20;99.90;;;;;;5073227;28;20085;-65
2021/12/20 06:17:56;;;;;;;12.60;2.13;;;5.20;99.90;;;;;;5076112;28;20487;-66
2021/12/20 06:20:23;;;;;;;10.50;1.70;;;5.30;99.90;;;;;;5069895;28;20101;-66
2021/12/20 06:22:48;;;;;;;6.43;1.88;;;5.30;99.90;;;;;;5072553;28;20097;-66
2021/12/20 06:25:15;;;;;;;11.45;1.63;;;5.30;99.90;;;;;;5065980;28;20052;-65
2021/12/20 06:27:41;;;;;;;6.35;1.77;;;5.30;99.90;;;;;;5083894;28;20455;-65
2021/12/20 06:30:09;;;;;;;8.02;1.77;;;5.30;99.90;;;;;;5067677;28;20138;-65
2021/12/20 06:32:39;;;;;;;7.18;1.55;;;5.30;99.90;;;;;;5091364;28;20049;-65
2021/12/20 06:35:05;;;;;;;10.23;1.90;;;5.30;99.90;;;;;;5063093;28;20143;-66
2021/12/20 06:37:32;;;;;;;10.43;2.10;;;5.30;99.90;;;;;;5067145;28;20047;-66
2021/12/20 06:39:59;;;;;;;7.13;1.63;;;5.30;99.90;;;;;;5067506;28;20111;-66
2021/12/20 06:42:24;;;;;;;8.35;1.55;;;5.40;99.90;;;;;;5066669;28;20040;-66
2021/12/20 06:44:50;;;;;;;9.40;1.60;;;5.40;99.90;;;;;;5069845;28;20437;-66
2021/12/20 06:47:18;;;;;;;10.50;1.85;;;5.40;99.90;;;;;;5085459;28;20063;-66
2021/12/20 06:49:44;;;;;;;8.40;1.55;;;5.40;99.90;;;;;;5097707;28;20044;-67
2021/12/20 06:52:10;;;;;;;14.20;2.60;;;5.40;99.90;;;;;;5064085;28;20047;-66
2021/12/20 06:54:36;;;;;;;7.47;2.00;;;5.40;99.90;;;;;;5072033;28;20577;-66
2021/12/20 06:57:02;;;;;;;7.20;1.55;;;5.40;99.90;;;;;;5067811;28;20530;-66
2021/12/20 06:59:28;;;;;;;7.88;1.85;;;5.40;99.90;;;;;;5095380;28;20040;-67
2021/12/20 07:01:53;;;;;;;9.57;1.75;;;5.40;99.90;;;;;;5088624;28;20042;-66
2021/12/20 07:04:20;;;;;;;11.52;1.77;;;5.40;99.90;;;;;;5066913;28;20079;-65
2021/12/20 07:06:45;;;;;;;9.32;1.50;;;5.40;99.90;;;;;;5064435;28;20055;-66
2021/12/20 07:09:11;;;;;;;6.90;1.80;;;5.40;99.90;;;;;;5052948;28;20044;-66
2021/12/20 07:11:41;;;;;;;11.00;1.70;;;5.40;99.90;;;;;;5051621;28;20125;-65
2021/12/20 07:14:08;;;;;;;16.30;2.22;;;5.40;99.90;;;;;;5046818;28;20488;-65
2021/12/20 07:16:35;;;;;;;6.50;1.80;;;5.40;99.90;;;;;;5061845;28;20048;-66
2021/12/20 07:19:02;;;;;;;7.95;1.85;;;5.40;99.90;;;;;;5064769;28;20047;-69
2021/12/20 07:21:28;;;;;;;7.97;1.60;;;5.40;99.90;;;;;;5062013;28;20299;-65
2021/12/20 07:23:54;;;;;;;10.55;2.17;;;5.40;99.90;;;;;;5058597;28;20600;-65
2021/12/20 07:26:20;;;;;;;11.77;2.15;;;5.40;99.90;;;;;;5056908;28;20041;-66
2021/12/20 07:28:46;;;;;;;11.35;2.25;;;5.40;99.90;;;;;;5059344;28;20518;-66
2021/12/20 07:31:12;;;;;;;10.75;2.53;;;5.50;99.90;;;;;;5067124;28;20044;-66
2021/12/20 07:33:39;;;;;;;11.65;2.28;;;5.50;99.90;;;;;;5061961;28;20407;-66
2021/12/20 07:36:05;;;;;;;8.70;1.80;;;5.50;99.90;;;;;;5063838;28;20097;-66
2021/12/20 07:38:31;;;;;;;11.65;3.38;;;5.50;99.90;;;;;;5060607;28;20111;-65
2021/12/20 07:40:57;;;;;;;9.00;1.80;;;5.50;99.90;;;;;;5074029;28;20131;-66
2021/12/20 07:43:23;;;;;;;13.30;3.22;;;5.50;99.90;;;;;;5061451;28;20048;-65
2021/12/20 07:45:49;;;;;;;11.98;2.30;;;5.50;99.90;;;;;;5053159;28;20056;-65
2021/12/20 07:48:16;;;;;;;13.70;1.90;;;5.40;99.90;;;;;;5050697;28;21774;-66
2021/12/20 07:50:43;;;;;;;12.48;2.47;;;5.40;99.90;;;;;;5055623;28;20128;-64
2021/12/20 07:53:08;;;;;;;15.48;1.85;;;5.40;99.90;;;;;;5056955;28;20090;-65
2021/12/20 07:55:34;;;;;;;7.10;2.03;;;5.40;99.90;;;;;;5057789;28;21243;-66
2021/12/20 07:58:00;;;;;;;9.05;2.50;;;5.40;99.90;;;;;;5056328;28;20113;-65
2021/12/20 08:00:26;;;;;;;8.80;1.90;;;5.40;99.90;;;;;;5058813;28;20040;-65
2021/12/20 08:02:53;;;;;;;5.88;1.58;;;5.40;99.90;;;;;;5057463;28;20041;-64
2021/12/20 08:05:20;;;;;;;10.68;2.15;;;5.40;99.90;;;;;;5055438;28;20053;-64
2021/12/20 08:07:50;;;;;;;10.93;1.92;;;5.40;99.90;;;;;;5053012;28;20040;-65
2021/12/20 08:10:17;;;;;;;8.77;2.38;;;5.40;99.90;;;;;;5068051;28;20135;-65
2021/12/20 08:12:44;;;;;;;10.45;3.20;;;5.40;99.90;;;;;;5056305;28;20044;-65
2021/12/20 08:15:10;;;;;;;18.60;2.35;;;5.30;99.90;;;;;;5056821;28;20123;-65
2021/12/20 08:17:36;;;;;;;12.50;2.10;;;5.30;99.90;;;;;;5074292;28;20048;-65
2021/12/20 08:20:03;;;;;;;12.05;2.33;;;5.30;99.90;;;;;;5055137;28;20434;-66
2021/12/20 08:22:29;;;;;;;9.95;2.53;;;5.20;99.90;;;;;;5058613;28;20649;-65
2021/12/20 08:24:55;;;;;;;16.83;2.60;;;5.20;99.90;;;;;;5061030;28;20085;-65
2021/12/20 08:27:20;;;;;;;9.55;2.63;;;5.20;99.90;;;;;;5055478;28;20083;-64
2021/12/20 08:29:46;;;;;;;14.93;2.50;;;5.20;99.90;;;;;;5075520;28;20044;-65
2021/12/20 08:32:11;;;;;;;14.93;2.38;;;5.20;99.90;;;;;;5068513;28;20040;-65
2021/12/20 08:34:37;;;;;;;11.40;1.88;;;5.10;99.90;;;;;;5093956;28;20497;-65
2021/12/20 08:37:03;;;;;;;10.82;2.65;;;5.10;99.90;;;;;;5082214;28;20040;-65
2021/12/20 08:39:30;;;;;;;11.85;2.55;;;5.00;99.90;;;;;;5065692;28;20041;-65
2021/12/20 08:41:57;;;;;;;14.05;2.40;;;5.00;99.90;;;;;;5096964;28;20114;-65
2021/12/20 08:44:24;;;;;;;13.73;2.60;;;5.00;99.90;;;;;;5061344;28;20482;-65
2021/12/20 08:46:51;;;;;;;13.13;2.90;;;4.90;99.90;;;;;;5064328;28;20101;-66
2021/12/20 08:49:18;;;;;;;10.40;2.33;;;4.90;99.90;;;;;;5058099;28;20044;-65
2021/12/20 08:51:45;;;;;;;14.18;2.75;;;4.90;99.90;;;;;;5056966;28;20047;-65
2021/12/20 08:54:11;;;;;;;15.70;2.65;;;4.90;99.90;;;;;;5057214;28;20048;-65
2021/12/20 08:56:37;;;;;;;7.13;1.88;;;4.90;99.90;;;;;;5059736;28;20491;-65
2021/12/20 08:59:03;;;;;;;13.13;2.97;;;4.90;99.90;;;;;;5055990;28;20044;-66
2021/12/20 09:01:29;;;;;;;12.93;3.03;;;4.90;99.90;;;;;;5053361;28;20052;-65
2021/12/20 09:03:57;;;;;;;9.88;3.30;;;4.90;99.90;;;;;;5085193;28;20069;-66
2021/12/20 09:06:27;;;;;;;12.32;2.95;;;4.90;99.90;;;;;;5063669;28;20119;-65
2021/12/20 09:08:56;;;;;;;16.33;3.88;;;4.90;99.90;;;;;;5065874;28;20483;-66
2021/12/20 09:11:22;;;;;;;11.13;3.20;;;4.90;99.90;;;;;;5061996;28;20036;-66
2021/12/20 09:13:49;;;;;;;12.13;3.22;;;5.00;99.90;;;;;;5061484;28;20179;-66
2021/12/20 09:16:17;;;;;;;11.40;2.80;;;5.00;99.90;;;;;;5058337;28;20040;-66
2021/12/20 09:18:43;;;;;;;13.98;3.90;;;5.00;99.90;;;;;;5084935;28;20055;-65
2021/12/20 09:21:10;;;;;;;15.73;4.18;;;5.00;99.90;;;;;;5064615;28;20032;-66
2021/12/20 09:23:38;;;;;;;8.02;2.88;;;5.00;99.90;;;;;;5065645;28;20036;-65
2021/12/20 09:26:04;;;;;;;11.82;2.75;;;5.00;99.90;;;;;;5063352;28;20049;-66
2021/12/20 09:28:30;;;;;;;18.30;2.75;;;5.00;99.90;;;;;;5066013;28;20052;-66
2021/12/20 09:30:56;;;;;;;8.15;2.83;;;5.00;99.90;;;;;;5064695;28;20090;-66
2021/12/20 09:33:22;;;;;;;23.65;4.97;;;5.10;99.90;;;;;;5060053;28;20542;-66
2021/12/20 09:35:50;;;;;;;14.02;3.55;;;5.10;99.90;;;;;;5064011;28;20051;-66
2021/12/20 09:38:19;;;;;;;11.30;3.53;;;5.10;99.90;;;;;;5064026;28;20376;-67
2021/12/20 09:41:15;;;;;;;15.07;4.40;;;5.10;99.90;;;;;;5079830;28;20036;-66
2021/12/20 09:43:49;;;;;;;10.95;3.20;;;5.20;99.90;;;;;;5085651;28;20036;-66
2021/12/20 09:46:17;;;;;;;12.27;3.20;;;5.20;99.90;;;;;;5058811;28;20043;-66
2021/12/20 09:48:49;;;;;;;13.85;2.97;;;5.30;99.90;;;;;;5063472;28;20041;-66
2021/12/20 09:51:16;;;;;;;13.10;3.57;;;5.30;99.90;;;;;;5079688;28;20044;-65
2021/12/20 09:53:42;;;;;;;12.57;3.05;;;5.40;99.90;;;;;;5083034;28;20389;-65
2021/12/20 09:56:08;;;;;;;14.10;2.58;;;5.40;99.90;;;;;;5054266;28;20398;-65
2021/12/20 09:58:37;;;;;;;14.50;3.42;;;5.50;99.90;;;;;;5060336;28;20103;-65
2021/12/20 10:01:06;;;;;;;14.20;3.55;;;5.50;99.90;;;;;;5085592;28;20055;-66
2021/12/20 10:03:32;;;;;;;17.38;3.63;;;5.60;99.90;;;;;;5064807;28;20555;-65
2021/12/20 10:05:58;;;;;;;16.17;3.78;;;5.70;99.90;;;;;;5089473;28;20570;-65
2021/12/20 10:08:32;;;;;;;14.45;3.00;;;5.70;99.90;;;;;;5083518;28;20083;-65
2021/12/20 10:11:04;;;;;;;12.18;3.38;;;5.80;99.90;;;;;;5078852;28;20157;-65
2021/12/20 10:13:37;;;;;;;13.40;3.47;;;5.90;99.90;;;;;;5081514;28;20141;-66
2021/12/20 10:16:13;;;;;;;14.15;3.00;;;5.90;99.90;;;;;;5067490;28;20087;-66
2021/12/20 10:18:39;;;;;;;11.57;3.80;;;5.90;99.90;;;;;;5089996;28;20039;-66
2021/12/20 10:21:05;;;;;;;12.82;3.10;;;5.90;99.90;;;;;;5063343;28;20045;-66
2021/12/20 10:23:33;;;;;;;11.50;3.88;;;5.90;99.90;;;;;;5064690;28;20086;-65
2021/12/20 10:26:13;;;;;;;16.40;4.35;;;5.90;99.90;;;;;;5082437;28;20607;-67
2021/12/20 10:28:39;;;;;;;16.52;3.50;;;5.90;99.90;;;;;;5083195;28;20052;-66
2021/12/20 10:31:15;;;;;;;13.82;3.13;;;5.90;99.90;;;;;;5059604;28;20040;-65
2021/12/20 10:33:52;;;;;;;11.68;3.20;;;5.90;99.90;;;;;;5041904;28;20044;-66
2021/12/20 10:36:18;;;;;;;13.20;2.75;;;5.90;99.90;;;;;;5078438;28;20078;-66
2021/12/20 10:38:45;;;;;;;17.13;3.55;;;5.90;99.90;;;;;;5090851;28;20088;-66
2021/12/20 10:41:27;;;;;;;17.95;3.55;;;5.90;99.90;;;;;;5082319;28;20044;-65
2021/12/20 10:43:58;;;;;;;11.50;2.60;;;5.90;99.90;;;;;;5093225;28;20197;-66
2021/12/20 10:46:25;;;;;;;14.70;2.90;;;5.90;99.90;;;;;;5054728;28;20067;-65
2021/12/20 10:49:06;;;;;;;13.45;2.42;;;5.90;99.90;;;;;;5068844;28;20497;-66
2021/12/20 10:51:39;;;;;;;25.48;3.45;;;6.00;99.90;;;;;;5058924;28;20058;-65
2021/12/20 10:54:10;;;;;;;15.55;3.10;;;6.00;99.90;;;;;;5062321;28;20083;-65
2021/12/20 10:56:48;;;;;;;21.35;4.63;;;6.00;99.90;;;;;;5060738;28;20040;-65
2021/12/20 10:59:14;;;;;;;15.85;3.42;;;6.00;99.90;;;;;;5060962;28;20459;-65
2021/12/20 11:04:34;;;;;;;13.35;3.20;;;6.10;99.90;;;;;;5057146;28;20083;-65
2021/12/20 11:09:37;;;;;;;19.35;3.67;;;6.20;99.90;;;;;;5071152;28;20040;-65
2021/12/20 11:12:06;;;;;;;16.75;4.57;;;6.20;99.90;;;;;;5055956;28;20051;-65
2021/12/20 11:14:39;;;;;;;16.52;4.22;;;6.30;99.90;;;;;;5058553;28;20059;-65
2021/12/20 11:17:09;;;;;;;18.77;5.35;;;6.30;99.90;;;;;;5060582;28;20052;-65
2021/12/20 11:19:40;;;;;;;19.60;3.90;;;6.40;99.90;;;;;;5057160;28;20511;-65
2021/12/20 11:22:09;;;;;;;25.63;4.32;;;6.40;99.90;;;;;;5077086;28;20044;-65
2021/12/20 11:24:38;;;;;;;15.77;3.50;;;6.40;99.90;;;;;;5058751;28;20039;-65
2021/12/20 11:27:07;;;;;;;15.43;2.95;;;6.50;99.90;;;;;;5053934;28;20052;-66
2021/12/20 11:29:33;;;;;;;13.30;4.30;;;6.50;99.90;;;;;;5056990;28;20082;-65
2021/12/20 11:32:00;;;;;;;17.58;3.92;;;6.50;99.90;;;;;;5061157;28;20039;-65
2021/12/20 11:34:27;;;;;;;17.42;3.80;;;6.50;99.90;;;;;;5093443;28;20040;-65
2021/12/20 11:36:54;;;;;;;21.42;3.42;;;6.50;99.90;;;;;;5063639;28;20044;-65
2021/12/20 11:39:20;;;;;;;16.60;3.10;;;6.50;99.90;;;;;;5085737;28;20521;-65
2021/12/20 11:41:45;;;;;;;21.75;4.05;;;6.60;99.90;;;;;;5060782;28;20407;-65
2021/12/20 11:44:20;;;;;;;22.45;3.30;;;6.60;99.90;;;;;;5058074;28;20032;-65
2021/12/20 11:47:03;;;;;;;21.42;3.10;;;6.60;99.90;;;;;;5089312;28;20048;-65
2021/12/20 11:49:31;;;;;;;22.02;4.45;;;6.60;99.90;;;;;;5094770;28;20178;-65
2021/12/20 11:52:12;;;;;;;20.25;4.40;;;6.60;99.90;;;;;;5059515;28;20051;-65
2021/12/20 11:54:50;;;;;;;15.43;3.20;;;6.70;99.90;;;;;;5063439;28;20818;-65
2021/12/20 11:57:27;;;;;;;13.68;3.10;;;6.60;99.90;;;;;;5060016;28;20048;-65
2021/12/20 11:59:55;;;;;;;24.77;3.70;;;6.70;99.90;;;;;;5053352;28;20078;-65
2021/12/20 12:02:22;;;;;;;19.80;3.88;;;6.70;99.90;;;;;;5078613;28;20053;-66
2021/12/20 12:05:03;;;;;;;23.63;4.20;;;6.70;99.90;;;;;;5070284;28;20074;-66
2021/12/20 12:07:31;;;;;;;30.33;3.63;;;6.70;99.90;;;;;;5059115;28;20040;-65
2021/12/20 12:10:00;;;;;;;17.92;3.33;;;6.80;99.90;;;;;;5083985;28;20539;-65
2021/12/20 12:12:28;;;;;;;22.15;4.18;;;6.70;99.90;;;;;;5067190;28;20054;-65
2021/12/20 12:15:03;;;;;;;22.67;3.08;;;6.80;99.90;;;;;;5059754;28;20406;-65
2021/12/20 12:17:54;;;;;;;22.25;4.68;;;6.70;99.90;;;;;;5080082;28;20498;-65
2021/12/20 12:20:53;;;;;;;23.95;4.00;;;6.80;99.90;;;;;;5084436;28;20047;-65
2021/12/20 12:23:19;;;;;;;22.88;3.85;;;6.70;99.90;;;;;;5079341;28;20636;-65
2021/12/20 12:25:49;;;;;;;24.48;3.95;;;6.70;99.90;;;;;;5063409;28;20124;-65
2021/12/20 12:28:18;;;;;;;19.27;3.60;;;6.70;99.90;;;;;;5063214;28;20270;-65
2021/12/20 12:30:55;;;;;;;20.02;3.63;;;6.70;99.90;;;;;;5089526;28;20040;-65
2021/12/20 12:33:22;;;;;;;14.88;3.30;;;6.70;99.90;;;;;;5058823;28;20048;-65
2021/12/20 12:35:51;;;;;;;19.80;3.47;;;6.70;99.90;;;;;;5063687;28;20040;-65
2021/12/20 12:38:19;;;;;;;26.02;5.05;;;6.70;99.90;;;;;;5060741;28;20056;-65
2021/12/20 12:41:12;;;;;;;25.95;4.35;;;6.70;99.90;;;;;;5068088;28;20044;-65
2021/12/20 12:44:07;;;;;;;18.15;2.83;;;6.70;99.90;;;;;;5070900;28;20479;-65
2021/12/20 12:46:36;;;;;;;21.83;3.65;;;6.70;99.90;;;;;;5060876;28;20502;-65
2021/12/20 12:49:20;;;;;;;15.75;3.65;;;6.70;99.90;;;;;;5060970;28;20443;-66
2021/12/20 12:51:56;;;;;;;20.20;4.85;;;6.70;99.90;;;;;;5080115;28;20067;-66
2021/12/20 12:54:33;;;;;;;21.30;4.40;;;6.60;99.90;;;;;;5059666;28;20135;-66
2021/12/20 12:57:11;;;;;;;27.25;6.13;;;6.60;99.90;;;;;;5060236;28;20058;-65
2021/12/20 12:59:56;;;;;;;28.27;5.15;;;6.60;99.90;;;;;;5063560;28;20048;-65
2021/12/20 13:02:27;;;;;;;18.17;3.95;;;6.60;99.90;;;;;;5073045;28;20485;-65
2021/12/20 13:04:56;;;;;;;19.65;5.15;;;6.60;99.90;;;;;;5059368;28;20051;-65
2021/12/20 13:07:29;;;;;;;19.80;5.05;;;6.60;99.90;;;;;;5065327;28;20076;-65